Cape Flattery, Washington
Current Conditions -  °F | °C
As of 8:53 PM on Friday 24 Oct 2014 (Local Time) from KUIL Reporting Station
Overcast Overcast  
Wind Chill: 51°   Ceiling: 8500
Heat Index: 51°   Visibility: 7mi
Dew Point: 46°   Wind: 6mph
Humidity: 83%   Direction: 50°NE
Pressure: 29.8"   Gusts: NA
Location:  48.3685°N, 124.623°W
Report Text: KUIL 250353Z AUTO 05005KT 7SM SCT060 SCT070 OVC085 11/08 A2980 RMK AO2 SLP090 T01060078
Loading
Personal Weather Stations






























Interactive Weather Map New forecast layout! Learn more

10-Day Weather Forecast

Advertisements
Track Severe Weather on mobile